createdAt,value
2018-09-24T00:00:36.258Z,27.13
2018-09-24T00:03:05.162Z,25.67
2018-09-24T00:05:34.110Z,26.77
2018-09-24T00:08:02.994Z,25.63
2018-09-24T00:10:32.237Z,27.13
2018-09-24T00:13:01.200Z,30.57
2018-09-24T00:15:30.104Z,25.93
2018-09-24T00:17:59.030Z,26.13
2018-09-24T00:20:27.935Z,25.40
2018-09-24T00:22:56.854Z,25.27
2018-09-24T00:25:25.827Z,24.90
2018-09-24T00:27:54.715Z,25.00
2018-09-24T00:30:23.660Z,26.27
2018-09-24T00:32:52.600Z,27.97
2018-09-24T00:35:21.519Z,26.90
2018-09-24T00:37:50.627Z,28.17
2018-09-24T00:40:19.560Z,30.57
2018-09-24T00:42:49.337Z,31.07
2018-09-24T00:45:18.312Z,30.70
2018-09-24T00:47:47.196Z,29.10
2018-09-24T00:50:16.051Z,32.40
2018-09-24T00:52:45.052Z,30.07
2018-09-24T00:55:13.899Z,29.97
2018-09-24T00:57:42.793Z,27.33
2018-09-24T01:00:11.721Z,29.10
2018-09-24T01:02:40.755Z,32.57
2018-09-24T01:05:09.647Z,31.13
2018-09-24T01:07:38.534Z,29.97
2018-09-24T01:10:07.991Z,29.60
2018-09-24T01:12:36.928Z,30.00
2018-09-24T01:15:06.131Z,30.90
2018-09-24T01:17:35.097Z,31.50
2018-09-24T01:20:04.128Z,33.70
2018-09-24T01:22:33.012Z,34.33
2018-09-24T01:25:13.829Z,36.27
2018-09-24T01:27:42.762Z,37.00
2018-09-24T01:30:11.660Z,35.33
2018-09-24T01:32:40.635Z,34.37
2018-09-24T01:35:09.543Z,35.83
2018-09-24T01:37:38.400Z,37.53
2018-09-24T01:40:07.641Z,37.13
2018-09-24T01:42:36.538Z,32.27
2018-09-24T01:45:05.507Z,30.70
2018-09-24T01:47:34.455Z,31.93
2018-09-24T01:50:03.428Z,34.07
2018-09-24T01:52:32.346Z,33.93
2018-09-24T01:55:01.353Z,31.80
2018-09-24T01:57:30.339Z,30.63
2018-09-24T01:59:59.223Z,30.10
2018-09-24T02:02:28.049Z,35.07
2018-09-24T02:04:57.016Z,32.93
2018-09-24T02:07:25.898Z,36.53
2018-09-24T02:09:54.787Z,41.63
2018-09-24T02:12:23.744Z,38.83
2018-09-24T02:14:52.656Z,38.10
2018-09-24T02:17:22.800Z,36.63
2018-09-24T02:19:52.452Z,37.23
2018-09-24T02:22:30.017Z,39.83
2018-09-24T02:24:59.875Z,39.03
2018-09-24T02:27:28.799Z,38.60
2018-09-24T02:29:57.759Z,40.07
2018-09-24T02:32:26.708Z,38.13
2018-09-24T02:34:57.798Z,39.83
2018-09-24T02:37:26.907Z,45.63
2018-09-24T02:39:55.804Z,46.73
2018-09-24T02:42:24.743Z,47.50
2018-09-24T02:44:58.094Z,41.97
2018-09-24T02:47:32.155Z,39.57
2018-09-24T02:50:03.779Z,37.57
2018-09-24T02:52:32.611Z,38.03
2018-09-24T02:55:01.523Z,44.57
2018-09-24T02:57:30.483Z,40.53
2018-09-24T02:59:59.433Z,37.93
2018-09-24T03:02:28.387Z,34.70
2018-09-24T03:04:57.411Z,33.00
2018-09-24T03:07:26.299Z,32.70
2018-09-24T03:09:55.317Z,33.27
2018-09-24T03:12:24.270Z,33.00
2018-09-24T03:14:53.154Z,34.60
2018-09-24T03:17:22.194Z,38.00
2018-09-24T03:19:51.069Z,40.27
2018-09-24T03:22:21.440Z,48.90
2018-09-24T03:24:50.552Z,60.80
2018-09-24T03:27:19.562Z,64.30
2018-09-24T03:29:48.463Z,49.93
2018-09-24T03:32:17.410Z,41.73
2018-09-24T03:34:49.213Z,35.07
2018-09-24T03:37:18.143Z,34.50
2018-09-24T03:39:47.103Z,38.67
2018-09-24T03:42:17.251Z,35.97
2018-09-24T03:44:46.168Z,40.27
2018-09-24T03:47:15.143Z,36.77
2018-09-24T03:49:44.059Z,40.60
2018-09-24T03:52:12.996Z,52.40
2018-09-24T03:54:43.162Z,50.87
2018-09-24T03:57:12.099Z,49.67
2018-09-24T03:59:40.996Z,61.40
2018-09-24T04:02:10.116Z,60.60
2018-09-24T04:04:44.152Z,64.70
2018-09-24T04:07:18.179Z,62.07
2018-09-24T04:09:52.213Z,76.37
2018-09-24T04:12:26.116Z,66.80
2018-09-24T04:15:00.048Z,63.00
2018-09-24T04:17:33.999Z,98.03
2018-09-24T04:20:07.883Z,75.87
2018-09-24T04:22:41.854Z,71.17
2018-09-24T04:25:15.916Z,78.17
2018-09-24T04:27:49.960Z,85.37
2018-09-24T04:30:24.044Z,60.57
2018-09-24T04:32:59.259Z,59.70
2018-09-24T04:35:33.236Z,57.63
2018-09-24T04:38:07.175Z,61.30
2018-09-24T04:40:41.212Z,57.43
2018-09-24T04:43:16.531Z,53.67
2018-09-24T04:45:50.679Z,54.90
2018-09-24T04:48:24.439Z,53.90
2018-09-24T04:50:58.489Z,54.60
2018-09-24T04:53:32.503Z,58.20
2018-09-24T04:56:06.810Z,47.27
2018-09-24T04:58:40.866Z,53.60
2018-09-24T05:01:14.816Z,67.47
2018-09-24T05:03:48.680Z,66.43
2018-09-24T05:06:22.789Z,59.47
2018-09-24T05:08:56.714Z,62.00
2018-09-24T05:11:30.719Z,63.97
2018-09-24T05:14:04.691Z,63.10
2018-09-24T05:16:38.808Z,50.97
2018-09-24T05:19:12.798Z,60.63
2018-09-24T05:21:46.739Z,53.30
2018-09-24T05:24:20.768Z,45.63
2018-09-24T05:26:54.669Z,44.10
2018-09-24T05:29:28.722Z,44.03
2018-09-24T05:32:02.590Z,41.20
2018-09-24T05:34:37.924Z,42.43
2018-09-24T05:37:11.840Z,39.40
2018-09-24T05:39:45.932Z,33.83
2018-09-24T05:42:19.871Z,37.47
2018-09-24T05:44:54.034Z,40.27
2018-09-24T05:47:28.048Z,32.80
2018-09-24T05:50:02.051Z,48.07
2018-09-24T05:52:35.987Z,33.87
2018-09-24T05:55:10.235Z,33.00
2018-09-24T05:57:44.143Z,34.00
2018-09-24T06:00:19.656Z,32.20
2018-09-24T06:02:53.750Z,33.23
2018-09-24T06:05:28.905Z,31.43
2018-09-24T06:08:02.901Z,32.00
2018-09-24T06:10:38.160Z,33.37
2018-09-24T06:13:12.126Z,44.70
2018-09-24T06:15:46.067Z,42.60
2018-09-24T06:18:19.903Z,39.07
2018-09-24T06:20:55.220Z,37.07
2018-09-24T06:23:32.914Z,35.83
2018-09-24T06:26:06.893Z,35.30
2018-09-24T06:28:40.771Z,38.67
2018-09-24T06:31:16.584Z,37.13
2018-09-24T06:33:50.652Z,36.27
2018-09-24T06:36:24.779Z,33.80
2018-09-24T06:38:58.849Z,29.57
2018-09-24T06:41:32.793Z,26.50
2018-09-24T06:44:06.811Z,25.77
2018-09-24T06:46:40.836Z,27.30
2018-09-24T06:49:14.903Z,29.77
2018-09-24T06:51:48.867Z,30.67
2018-09-24T06:54:22.840Z,33.83
2018-09-24T06:56:56.898Z,29.83
2018-09-24T06:59:32.209Z,30.20
2018-09-24T07:02:06.235Z,33.23
2018-09-24T07:04:40.431Z,30.80
2018-09-24T07:07:14.378Z,34.40
2018-09-24T07:09:48.442Z,33.23
2018-09-24T07:12:22.491Z,33.13
2018-09-24T07:14:57.675Z,33.30
2018-09-24T07:17:33.084Z,32.67
2018-09-24T07:20:08.339Z,33.40
2018-09-24T07:22:42.295Z,35.63
2018-09-24T07:25:17.451Z,34.17
2018-09-24T07:27:51.504Z,29.30
2018-09-24T07:30:27.080Z,28.43
2018-09-24T07:33:01.211Z,29.07
2018-09-24T07:35:35.229Z,35.57
2018-09-24T07:38:09.235Z,42.57
2018-09-24T07:40:43.115Z,30.87
2018-09-24T07:43:17.061Z,34.93
2018-09-24T07:45:52.259Z,30.90
2018-09-24T07:48:26.161Z,25.33
2018-09-24T07:51:00.132Z,23.30
2018-09-24T07:53:35.666Z,23.63
2018-09-24T07:56:09.518Z,35.70
2018-09-24T07:58:43.454Z,30.00
2018-09-24T08:01:17.401Z,29.60
2018-09-24T08:03:51.463Z,33.20
2018-09-24T08:06:26.722Z,28.97
2018-09-24T08:09:00.792Z,34.27
2018-09-24T08:11:34.586Z,30.97
2018-09-24T08:14:08.536Z,40.43
2018-09-24T08:16:43.791Z,30.67
2018-09-24T08:19:17.778Z,25.53
2018-09-24T08:21:53.093Z,23.47
2018-09-24T08:24:26.951Z,18.47
2018-09-24T08:27:00.880Z,19.37
2018-09-24T08:29:34.772Z,22.97
2018-09-24T08:32:08.825Z,29.20
2018-09-24T08:34:42.905Z,30.93
2018-09-24T08:37:16.878Z,16.57
2018-09-24T08:39:51.007Z,14.20
2018-09-24T08:42:24.910Z,15.03
2018-09-24T08:45:00.228Z,13.03
2018-09-24T08:47:34.275Z,12.57
2018-09-24T08:50:09.466Z,12.23
2018-09-24T08:52:43.533Z,12.00
2018-09-24T08:55:17.481Z,10.70
2018-09-24T08:57:51.427Z,26.73
2018-09-24T09:00:25.399Z,28.50
2018-09-24T09:02:59.507Z,19.73
2018-09-24T09:05:34.988Z,21.07
2018-09-24T09:08:08.937Z,30.90
2018-09-24T09:10:43.028Z,27.33
2018-09-24T09:13:17.089Z,16.07
2018-09-24T09:15:51.205Z,24.70
2018-09-24T09:18:25.107Z,20.27
2018-09-24T09:21:00.507Z,11.80
2018-09-24T09:23:34.598Z,9.30
2018-09-24T09:26:08.724Z,8.87
2018-09-24T09:28:42.785Z,8.63
2018-09-24T09:31:16.812Z,16.50
2018-09-24T09:33:50.851Z,16.33
2018-09-24T09:36:26.045Z,15.67
2018-09-24T09:38:59.994Z,12.37
2018-09-24T09:41:33.953Z,13.33
2018-09-24T09:44:08.035Z,12.43
2018-09-24T09:46:42.079Z,8.97
2018-09-24T09:49:16.068Z,10.60
2018-09-24T09:51:50.119Z,10.53
2018-09-24T09:54:24.096Z,10.50
2018-09-24T09:56:58.245Z,9.87
2018-09-24T09:59:32.245Z,10.80
2018-09-24T10:02:07.573Z,10.03
2018-09-24T10:04:41.595Z,10.20
2018-09-24T10:07:17.084Z,9.67
2018-09-24T10:09:50.983Z,9.73
2018-09-24T10:12:26.189Z,9.17
2018-09-24T10:15:00.107Z,9.73
2018-09-24T10:17:34.085Z,8.93
2018-09-24T10:20:08.039Z,9.90
2018-09-24T10:22:42.093Z,9.80
2018-09-24T10:25:16.090Z,11.57
2018-09-24T10:27:51.400Z,13.50
2018-09-24T10:30:26.452Z,14.30
2018-09-24T10:33:00.456Z,15.20
2018-09-24T10:35:34.495Z,13.93
2018-09-24T10:38:08.461Z,12.80
2018-09-24T10:40:42.496Z,11.23
2018-09-24T10:43:17.608Z,11.53
2018-09-24T10:45:51.648Z,12.30
2018-09-24T10:48:26.985Z,11.30
2018-09-24T10:51:00.783Z,11.63
2018-09-24T10:53:34.774Z,12.70
2018-09-24T10:56:08.724Z,12.47
2018-09-24T10:58:42.668Z,12.77
2018-09-24T11:01:16.604Z,11.93
2018-09-24T11:03:52.078Z,12.17
2018-09-24T11:06:26.037Z,12.67
2018-09-24T11:09:00.059Z,12.40
2018-09-24T11:11:34.112Z,12.17
2018-09-24T11:14:09.598Z,12.57
2018-09-24T11:16:43.787Z,12.97
2018-09-24T11:19:19.022Z,12.93
2018-09-24T11:21:52.976Z,12.97
2018-09-24T11:24:28.292Z,13.40
2018-09-24T11:27:02.362Z,14.17
2018-09-24T11:29:37.768Z,13.87
2018-09-24T11:32:11.871Z,12.37
2018-09-24T11:34:46.991Z,12.17
2018-09-24T11:37:21.033Z,12.53
2018-09-24T11:39:56.866Z,12.57
2018-09-24T11:42:30.986Z,11.40
2018-09-24T11:45:04.991Z,11.07
2018-09-24T11:47:39.123Z,10.23
2018-09-24T11:50:13.090Z,9.17
2018-09-24T11:52:47.110Z,8.70
2018-09-24T11:55:20.990Z,7.93
2018-09-24T11:57:56.360Z,7.87
2018-09-24T12:00:30.279Z,8.20
2018-09-24T12:03:05.489Z,8.07
2018-09-24T12:05:39.509Z,8.23
2018-09-24T12:08:14.656Z,8.57
2018-09-24T12:10:48.676Z,8.70
2018-09-24T12:13:22.685Z,9.60
2018-09-24T12:15:56.699Z,8.70
2018-09-24T12:18:30.778Z,8.77
2018-09-24T12:21:04.850Z,9.17
2018-09-24T12:23:38.670Z,8.63
2018-09-24T12:26:12.840Z,9.40
2018-09-24T12:28:46.913Z,9.60
2018-09-24T12:31:22.237Z,9.93
2018-09-24T12:33:56.193Z,10.30
2018-09-24T12:36:31.735Z,10.10
2018-09-24T12:39:05.687Z,10.83
2018-09-24T12:41:40.898Z,10.90
2018-09-24T12:44:14.931Z,11.17
2018-09-24T12:46:48.928Z,11.17
2018-09-24T12:49:22.975Z,10.93
2018-09-24T12:51:58.458Z,11.00
2018-09-24T12:54:32.501Z,10.57
2018-09-24T12:57:06.553Z,10.87
2018-09-24T12:59:40.609Z,11.27
2018-09-24T13:02:14.645Z,10.97
2018-09-24T13:04:48.651Z,9.83
2018-09-24T13:07:22.572Z,10.23
2018-09-24T13:09:56.593Z,9.47
2018-09-24T13:12:30.636Z,8.53
2018-09-24T13:15:04.626Z,9.83
2018-09-24T13:17:38.615Z,8.57
2018-09-24T13:20:12.692Z,8.47
2018-09-24T13:22:46.731Z,8.83
2018-09-24T13:25:20.862Z,8.70
2018-09-24T13:27:54.799Z,7.90
2018-09-24T13:30:28.718Z,8.10
2018-09-24T13:33:02.607Z,8.47
2018-09-24T13:35:36.610Z,8.27
2018-09-24T13:38:10.738Z,8.67
2018-09-24T13:40:44.780Z,8.37
2018-09-24T13:43:18.820Z,8.63
2018-09-24T13:45:52.789Z,8.70
2018-09-24T13:48:26.833Z,8.63
2018-09-24T13:51:01.072Z,9.13
2018-09-24T13:53:35.260Z,8.57
2018-09-24T13:56:09.441Z,8.77
2018-09-24T13:58:43.365Z,8.53
2018-09-24T14:01:17.280Z,8.67
2018-09-24T14:03:52.684Z,9.57
2018-09-24T14:06:26.716Z,9.23
2018-09-24T14:09:02.085Z,8.87
2018-09-24T14:11:36.033Z,9.60
2018-09-24T14:14:11.476Z,9.27
2018-09-24T14:16:46.741Z,9.70
2018-09-24T14:19:22.067Z,9.90
2018-09-24T14:21:56.170Z,9.53
2018-09-24T14:24:31.560Z,10.17
2018-09-24T14:27:05.413Z,9.67
2018-09-24T14:29:39.358Z,9.90
2018-09-24T14:32:13.260Z,9.93
2018-09-24T14:34:47.276Z,9.77
2018-09-24T14:37:21.340Z,10.20
2018-09-24T14:39:55.362Z,10.20
2018-09-24T14:42:29.461Z,10.90
2018-09-24T14:45:03.579Z,10.97
2018-09-24T14:47:37.495Z,10.33
2018-09-24T14:50:12.258Z,10.37
2018-09-24T14:52:46.282Z,10.50
2018-09-24T14:55:20.374Z,11.07
2018-09-24T14:57:54.355Z,10.40
2018-09-24T15:00:28.473Z,11.33
2018-09-24T15:03:03.680Z,11.90
2018-09-24T15:05:38.879Z,12.70
2018-09-24T15:08:12.915Z,11.90
2018-09-24T15:10:48.617Z,12.60
2018-09-24T15:13:23.910Z,13.03
2018-09-24T15:15:58.019Z,12.27
2018-09-24T15:18:33.201Z,12.17
2018-09-24T15:21:08.566Z,11.73
2018-09-24T15:23:42.644Z,11.93
2018-09-24T15:26:17.851Z,14.00
2018-09-24T15:28:53.088Z,13.37
2018-09-24T15:31:27.207Z,13.83
2018-09-24T15:34:01.175Z,14.07
2018-09-24T15:36:36.330Z,15.70
2018-09-24T15:39:11.009Z,14.70
2018-09-24T15:41:45.136Z,14.83
2018-09-24T15:44:19.231Z,14.43
2018-09-24T15:46:54.410Z,14.50
2018-09-24T15:49:29.526Z,12.93
2018-09-24T15:52:04.875Z,12.90
2018-09-24T15:54:38.756Z,12.77
2018-09-24T15:57:14.170Z,12.27
2018-09-24T15:59:48.255Z,11.37
2018-09-24T16:02:22.384Z,12.70
2018-09-24T16:04:57.810Z,13.10
2018-09-24T16:07:31.959Z,12.97
2018-09-24T16:10:06.099Z,11.97
2018-09-24T16:12:39.988Z,12.20
2018-09-24T16:15:13.957Z,12.00
2018-09-24T16:17:47.879Z,12.63
2018-09-24T16:20:21.931Z,11.87
2018-09-24T16:22:55.974Z,11.53
2018-09-24T16:25:30.006Z,12.10
2018-09-24T16:28:03.942Z,11.87
2018-09-24T16:30:39.387Z,11.63
2018-09-24T16:33:14.768Z,10.97
2018-09-24T16:35:49.918Z,12.67
2018-09-24T16:38:25.113Z,14.70
2018-09-24T16:40:59.192Z,16.83
2018-09-24T16:43:40.111Z,17.97
2018-09-24T16:46:14.185Z,16.53
2018-09-24T16:48:48.160Z,15.67
2018-09-24T16:51:22.258Z,14.30
2018-09-24T16:53:57.570Z,15.40
2018-09-24T16:56:31.482Z,15.83
2018-09-24T16:59:05.524Z,15.53
2018-09-24T17:01:39.581Z,15.87
2018-09-24T17:04:13.688Z,16.70
2018-09-24T17:06:47.690Z,15.73
2018-09-24T17:09:21.647Z,15.13
2018-09-24T17:11:55.735Z,16.83
2018-09-24T17:14:31.129Z,16.17
2018-09-24T17:17:05.063Z,16.17
2018-09-24T17:19:39.114Z,16.23
2018-09-24T17:22:13.158Z,15.40
2018-09-24T17:24:47.271Z,14.90
2018-09-24T17:27:21.391Z,14.60
2018-09-24T17:29:55.366Z,14.27
2018-09-24T17:32:29.469Z,14.47
2018-09-24T17:35:06.127Z,14.87
2018-09-24T17:37:51.943Z,14.10
2018-09-24T17:40:29.796Z,15.30
2018-09-24T17:43:04.129Z,14.67
2018-09-24T17:45:39.623Z,16.03
2018-09-24T17:48:13.721Z,16.53
2018-09-24T17:50:47.725Z,19.17
2018-09-24T17:53:21.710Z,19.47
2018-09-24T17:55:56.973Z,22.27
2018-09-24T17:58:32.385Z,22.13
2018-09-24T18:01:06.300Z,23.70
2018-09-24T18:03:40.249Z,24.17
2018-09-24T18:06:14.236Z,23.63
2018-09-24T18:08:48.252Z,25.20
2018-09-24T18:11:22.343Z,25.60
2018-09-24T18:13:57.535Z,23.27
2018-09-24T18:16:31.536Z,22.90
2018-09-24T18:19:05.536Z,23.73
2018-09-24T18:21:39.560Z,22.03
2018-09-24T18:24:15.207Z,20.63
2018-09-24T18:26:49.016Z,19.57
2018-09-24T18:29:22.972Z,18.30
2018-09-24T18:31:57.058Z,17.30
2018-09-24T18:34:32.477Z,17.00
2018-09-24T18:37:06.382Z,15.73
2018-09-24T18:39:41.786Z,14.97
2018-09-24T18:42:15.894Z,13.87
2018-09-24T18:44:49.838Z,11.43
2018-09-24T18:47:23.759Z,12.83
2018-09-24T18:49:59.097Z,11.87
2018-09-24T18:52:33.203Z,10.67
2018-09-24T18:55:07.107Z,11.57
2018-09-24T18:57:41.143Z,10.77
2018-09-24T19:00:16.463Z,10.27
2018-09-24T19:02:50.344Z,10.00
2018-09-24T19:05:25.475Z,9.90
2018-09-24T19:07:59.348Z,9.57
2018-09-24T19:10:34.629Z,9.37
2018-09-24T19:13:08.589Z,9.73
2018-09-24T19:15:42.482Z,9.43
2018-09-24T19:18:17.622Z,9.30
2018-09-24T19:20:51.786Z,9.20
2018-09-24T19:23:25.733Z,9.93
2018-09-24T19:26:01.106Z,9.03
2018-09-24T19:28:35.140Z,8.13
2018-09-24T19:31:10.275Z,7.70
2018-09-24T19:33:44.169Z,8.63
2018-09-24T19:36:18.156Z,8.03
2018-09-24T19:38:52.244Z,8.13
2018-09-24T19:41:26.180Z,8.57
2018-09-24T19:44:00.159Z,9.03
2018-09-24T19:46:34.049Z,9.77
2018-09-24T19:49:09.268Z,9.47
2018-09-24T19:51:43.275Z,9.40
2018-09-24T19:54:18.443Z,9.43
2018-09-24T19:56:52.380Z,9.97
2018-09-24T19:59:26.423Z,9.00
2018-09-24T20:02:00.324Z,8.80
2018-09-24T20:04:35.500Z,9.63
2018-09-24T20:07:10.804Z,7.63
2018-09-24T20:09:44.762Z,9.60
2018-09-24T20:12:18.893Z,9.50
2018-09-24T20:14:52.779Z,8.30
2018-09-24T20:17:28.035Z,9.80
2018-09-24T20:20:02.010Z,8.03
2018-09-24T20:22:37.194Z,8.40
2018-09-24T20:25:11.124Z,8.03
2018-09-24T20:27:46.568Z,7.17
2018-09-24T20:30:20.529Z,7.23
2018-09-24T20:32:55.911Z,7.23
2018-09-24T20:35:29.897Z,6.77
2018-09-24T20:38:06.510Z,7.17
2018-09-24T20:40:41.686Z,7.57
2018-09-24T20:43:15.766Z,8.33
2018-09-24T20:45:49.905Z,8.20
2018-09-24T20:48:23.906Z,8.30
2018-09-24T20:50:59.335Z,9.63
2018-09-24T20:53:33.273Z,11.37
2018-09-24T20:56:07.175Z,14.17
2018-09-24T20:58:41.155Z,16.90
2018-09-24T21:01:15.199Z,16.80
2018-09-24T21:03:49.208Z,16.67
2018-09-24T21:06:23.249Z,17.07
2018-09-24T21:08:57.163Z,18.07
2018-09-24T21:11:31.100Z,16.30
2018-09-24T21:14:05.023Z,15.77
2018-09-24T21:16:38.910Z,10.40
2018-09-24T21:19:13.142Z,10.60
2018-09-24T21:21:47.075Z,10.35
2018-09-24T21:24:21.044Z,9.60
2018-09-24T21:26:54.925Z,9.13
2018-09-24T21:29:28.921Z,9.67
2018-09-24T21:32:02.996Z,8.60
2018-09-24T21:34:37.287Z,9.13
2018-09-24T21:37:11.190Z,8.40
2018-09-24T21:39:45.168Z,6.67
2018-09-24T21:42:19.212Z,6.40
2018-09-24T21:44:53.172Z,6.70
2018-09-24T21:47:27.277Z,6.63
2018-09-24T21:50:01.257Z,6.83
2018-09-24T21:52:35.142Z,6.63
2018-09-24T21:55:09.095Z,5.93
2018-09-24T21:57:43.115Z,5.53
2018-09-24T22:00:18.316Z,5.40
2018-09-24T22:02:52.307Z,5.07
2018-09-24T22:05:26.252Z,5.00
2018-09-24T22:08:00.201Z,4.83
2018-09-24T22:10:34.166Z,5.40
2018-09-24T22:13:08.117Z,5.33
2018-09-24T22:15:42.135Z,5.37
2018-09-24T22:18:15.948Z,5.00
2018-09-24T22:20:49.919Z,5.50
2018-09-24T22:23:23.987Z,4.70
2018-09-24T22:25:57.940Z,5.30
2018-09-24T22:28:31.857Z,4.60
2018-09-24T22:31:05.983Z,4.47
2018-09-24T22:33:40.067Z,4.63
2018-09-24T22:36:14.070Z,4.37
2018-09-24T22:38:48.039Z,4.87
2018-09-24T22:41:22.003Z,3.80
2018-09-24T22:43:55.999Z,4.17
2018-09-24T22:46:30.006Z,2.53
2018-09-24T22:49:03.774Z,2.77
2018-09-24T22:51:37.820Z,2.87
2018-09-24T22:54:11.773Z,2.00
2018-09-24T22:56:45.671Z,2.40
2018-09-24T22:59:19.654Z,2.13
2018-09-24T23:01:53.646Z,2.10
2018-09-24T23:04:27.564Z,1.70
2018-09-24T23:07:01.476Z,1.80
2018-09-24T23:09:35.300Z,1.70
2018-09-24T23:12:09.411Z,1.50
2018-09-24T23:14:43.276Z,1.83
2018-09-24T23:17:17.208Z,1.17
2018-09-24T23:19:51.011Z,1.30
2018-09-24T23:22:24.955Z,1.17
2018-09-24T23:24:58.868Z,1.50
2018-09-24T23:27:32.803Z,1.40
2018-09-24T23:30:06.712Z,1.30
2018-09-24T23:32:40.745Z,1.20
2018-09-24T23:35:14.643Z,1.17
2018-09-24T23:37:48.635Z,1.43
2018-09-24T23:40:22.616Z,1.30
2018-09-24T23:42:57.354Z,0.97
2018-09-24T23:45:31.324Z,1.10
2018-09-24T23:48:05.220Z,1.10
2018-09-24T23:50:39.330Z,1.00
2018-09-24T23:53:13.303Z,1.20
2018-09-24T23:55:47.210Z,1.10
2018-09-24T23:58:21.134Z,1.37
